Weather observations for the past three days for
Salem - McNary Field
Imperial (Metric)
Date Time (pdt) Wind (mph) Vis. (mi.) Weather Sky Cond. Temperature (ºF) Relative Humidity Wind Chill (°F) Heat Index (°F) Pressure Precipitation (in)
Air Dwpt 6 hour altimeter (in) sea level (mb) 1 hr 3 hr 6 hr
Max. Min.
09 03:56 N 5 10.00 Fair CLR 51.1 46.9 86% 30.15 1020.9
09 02:56 N 3 10.00 Fair CLR 50 46.9 89% 30.16 1021.1
09 01:56 N 5 10.00 Fair CLR 53.1 48 83% 30.16 1021.4
09 00:56 N 5 10.00 Fair CLR 53.1 46.9 80% 30.17 1021.7
08 23:56 W 3 10.00 Fair CLR 55.9 46.9 72% 30.17 1021.6
08 22:56 W 7 10.00 Mostly Cloudy BKN050 57.9 48 69.1 57.9 70% 30.17 1021.7
08 21:56 SW 5 10.00 Partly Cloudy SCT050 59 48.9 69% 30.17 1021.4
08 20:56 Calm 10.00 Partly Cloudy SCT050 61 48 63% 30.15 1021.1
08 19:56 NW 6 10.00 Fair CLR 63 48 58% 30.14 1020.6
08 18:56 N 9 10.00 Mostly Cloudy BKN046 66.9 48 51% 30.14 1020.5
08 17:56 NW 7 10.00 Partly Cloudy SCT047 68 46.9 47% 30.15 1020.9
08 16:56 W 8 10.00 Fair CLR 66.9 46 68 57 47% 30.15 1021.0
08 15:56 Vrbl 6 10.00 Fair CLR 66.9 45 45% 30.16 1021.2
08 14:56 W 8 10.00 Fair CLR 66 43 43% 30.17 1021.5
08 13:56 SW 7 10.00 Fair CLR 64 42.1 45% 30.17 1021.5
08 12:56 Vrbl 5 10.00 Partly Cloudy SCT039 62.1 42.1 48% 30.18 1021.8
08 11:56 Calm 10.00 Overcast OVC035 57.9 42.1 56% 30.18 1022.0
08 10:56 S 8 10.00 Mostly Cloudy BKN031 57.9 42.1 57.9 46 56% 30.18 1021.9
08 09:56 SW 9 10.00 Overcast BKN026 OVC031 54 43 67% 30.17 1021.7
08 08:56 SE 8 10.00 Partly Cloudy SCT023 53.1 44.1 72% 30.15 1020.9
08 07:56 SE 12 10.00 Fair CLR 48.9 44.1 83% 45 30.15 1021.1
08 06:56 S 3 10.00 Fair CLR 48.9 43 80% 30.16 1021.1
08 05:56 Calm 10.00 Fair CLR 46.9 42.1 83% 30.12 1020.0
08 04:56 W 8 10.00 Fair CLR 48.9 42.1 57 48 77% 46 30.1 1019.3
08 03:56 W 6 10.00 Fair CLR 50 42.1 74% 48 30.07 1018.3
08 02:56 Calm 10.00 Fair CLR 50 44.1 80% 30.06 1017.8
08 01:56 W 5 10.00 Fair CLR 52 43 72% 30.04 1017.4
08 00:56 W 5 10.00 Fair CLR 53.1 43 69% 30.03 1017.0
07 23:56 SW 3 10.00 Fair CLR 54 44.1 69% 30.03 1016.8
07 22:56 SW 3 10.00 Fair CLR 57 44.1 72 55.9 62% 30.02 1016.6
07 21:56 W 5 10.00 Fair CLR 57.9 43 58% 30.02 1016.5
07 20:56 NW 6 10.00 Fair CLR 60.1 46 60% 30.01 1016.0
07 19:56 E 3 10.00 Fair CLR 66.9 42.1 41% 29.99 1015.3
07 18:56 E 6 10.00 Fair CLR 70 43 38% 29.98 1015.3
07 17:56 NE 7 10.00 Fair CLR 72 41 33% 30 1015.8
07 16:56 E 7 10.00 Fair CLR 72 39.9 72 59 31% 30.01 1016.1
07 15:56 Vrbl 3 10.00 Fair CLR 71.1 39.9 32% 30.03 1016.9
07 14:56 NW 3 10.00 Fair CLR 69.1 43 39% 30.05 1017.7
07 13:56 Calm 10.00 Fair CLR 66 44.1 45% 30.07 1018.3
07 12:56 Calm 10.00 Fair CLR 64 46.9 54% 30.09 1019.0
07 11:56 NW 6 10.00 Overcast OVC031 61 46 58% 30.11 1019.6
07 10:56 N 9 10.00 Overcast FEW029 OVC036 60.1 46 60.1 54 60% 30.12 1020.0
07 09:56 NE 6 10.00 Mostly Cloudy BKN035 57.9 46 65% 30.13 1020.1
07 08:56 NE 7 10.00 Overcast FEW021 OVC034 57 45 64% 30.13 1020.2
07 07:56 N 8 10.00 Overcast OVC033 55 45 69% 30.13 1020.4
07 06:56 NE 7 10.00 Overcast SCT022 OVC032 54 44.1 69% 30.12 1020.0
07 05:56 NE 6 10.00 Overcast OVC021 54 45 72% 30.12 1020.0
07 04:56 N 5 10.00 Overcast OVC019 54 48 54 54 80% 30.13 1020.3
07 03:56 NW 5 10.00 Overcast OVC019 54 48 80% 30.13 1020.4
07 02:56 W 5 10.00 Overcast OVC020 54 48 80% 30.14 1020.7
07 01:56 NW 5 10.00 Overcast OVC023 54 48 80% 30.16 1021.2
07 00:56 W 3 10.00 Overcast OVC025 54 46.9 77% 30.16 1021.1
06 23:56 W 6 10.00 Overcast OVC033 54 46.9 77% 30.15 1021.1
06 22:56 W 5 10.00 Overcast BKN034 OVC045 54 46.9 70 54 77% 30.15 1021.1
06 21:56 W 5 10.00 Fair CLR 54 46 75% 30.15 1021.0
06 20:56 W 7 10.00 Fair CLR 55 46.9 74% 30.13 1020.4
06 19:56 W 8 10.00 Fair CLR 59 48.9 69% 30.11 1019.7
06 18:56 W 10 10.00 Fair CLR 63 50 63% 30.11 1019.7
06 17:56 W 12 10.00 Fair CLR 66.9 52 59% 30.11 1019.6
06 16:56 NW 8 10.00 Fair CLR 69.1 53.1 71.1 57.9 57% 30.1 1019.3
06 15:56 NW 7 10.00 Fair CLR 71.1 52 51% 30.1 1019.4
06 14:56 Calm 10.00 Partly Cloudy SCT033 69.1 52 55% 30.12 1019.8
06 13:56 Vrbl 5 10.00 Mostly Cloudy BKN030 66.9 52 59% 30.13 1020.2
06 12:56 Vrbl 6 10.00 Overcast OVC023 64 53.1 68% 30.14 1020.5
06 11:56 S 5 10.00 Overcast OVC017 61 52 72% 30.15 1020.9
06 10:56 S 8 10.00 Overcast OVC014 57.9 51.1 57.9 52 78% 30.15 1020.8
06 09:56 Calm 10.00 Overcast OVC011 55.9 51.1 84% 30.15 1020.8
06 08:56 Calm 10.00 Overcast OVC010 54 48.9 83% 30.14 1020.4
06 07:56 W 13 10.00 Overcast OVC015 54 48.9 83% 30.15 1020.9
06 06:56 S 3 10.00 Mostly Cloudy FEW011 BKN034 53.1 48.9 86% 30.12 1019.8
Date Time (pdt) Wind (mph) Vis. (mi.) Weather Sky Cond. Air Dwpt Max. Min. Relative Humidity Wind Chill (°F) Heat Index (°F) altimeter (in) sea level (mb) 1 hr 3 hr 6 hr
6 hour
Temperature (ºF) Pressure Precipitation (in)